Time;durP1;ratioP1;P1;durP2;ratioP2;P2;SDS_P1;SDS_P2;PMS_P1;PMS_P2;Temp;Humidity;BMP_temperature;BMP_pressure;BME280_temperature;BME280_humidity;BME280_pressure;Samples;Min_cycle;Max_cycle;Signal;HPM_P1;HPM_P2
2022/04/13 00:02:07;;;;;;;11.73;5.93;;;19.00;58.20;;;;;;4942004;29;20199;-95
2022/04/13 00:04:41;;;;;;;12.13;6.27;;;19.00;58.00;;;;;;4947548;29;20241;-96
2022/04/13 00:07:19;;;;;;;9.33;5.43;;;18.90;58.30;;;;;;4924764;29;20296;-94
2022/04/13 00:12:31;;;;;;;9.87;6.10;;;18.90;58.00;;;;;;4946136;29;20208;-95
2022/04/13 00:15:22;;;;;;;12.10;6.03;;;18.90;58.30;;;;;;4946821;29;20196;-96
2022/04/13 00:17:56;;;;;;;13.77;5.93;;;18.90;59.10;;;;;;4929345;29;20272;-95
2022/04/13 00:20:25;;;;;;;13.70;6.70;;;18.90;58.80;;;;;;4923549;29;20207;-95
2022/04/13 00:22:57;;;;;;;20.37;7.63;;;18.90;58.70;;;;;;4945001;29;20211;-95
2022/04/13 00:28:48;;;;;;;11.63;6.17;;;18.80;59.00;;;;;;4948213;29;20184;-95
2022/04/13 00:31:20;;;;;;;11.03;5.53;;;18.80;58.70;;;;;;4936371;29;20288;-96
2022/04/13 00:33:58;;;;;;;10.57;6.07;;;18.80;59.00;;;;;;4925784;29;20235;-95
2022/04/13 00:36:32;;;;;;;8.67;5.03;;;18.80;59.10;;;;;;4925614;29;20222;-95
2022/04/13 00:39:01;;;;;;;13.07;6.30;;;18.80;59.10;;;;;;4934285;29;20225;-94
2022/04/13 00:41:43;;;;;;;14.47;5.97;;;18.80;59.20;;;;;;4931209;29;20220;-95
2022/04/13 00:44:29;;;;;;;11.70;5.80;;;18.70;59.80;;;;;;4929075;29;20209;-95
2022/04/13 00:47:15;;;;;;;13.57;5.57;;;18.80;59.60;;;;;;4925927;29;20303;-95
2022/04/13 00:49:44;;;;;;;12.37;5.70;;;18.80;59.40;;;;;;4927537;29;20256;-95
2022/04/13 00:55:40;;;;;;;14.73;7.03;;;18.70;60.10;;;;;;4922644;29;20200;-95
2022/04/13 00:58:36;;;;;;;12.27;5.60;;;18.70;59.80;;;;;;4923759;29;20220;-96
2022/04/13 01:01:06;;;;;;;12.33;6.13;;;18.80;60.00;;;;;;4920987;29;20645;-95
2022/04/13 01:03:43;;;;;;;11.33;6.00;;;18.70;59.80;;;;;;4922729;29;20295;-96
2022/04/13 01:06:17;;;;;;;11.10;6.00;;;18.70;60.10;;;;;;4928866;29;20208;-95
2022/04/13 01:08:53;;;;;;;15.53;7.10;;;18.70;60.00;;;;;;4931716;29;20657;-95
2022/04/13 01:11:26;;;;;;;11.37;5.10;;;18.80;60.30;;;;;;4926859;29;20231;-95
2022/04/13 01:14:05;;;;;;;13.87;6.03;;;18.70;60.30;;;;;;4939468;29;20299;-96
2022/04/13 01:16:34;;;;;;;10.60;5.73;;;18.70;60.40;;;;;;4923443;29;20200;-95
2022/04/13 01:19:26;;;;;;;10.83;5.23;;;18.70;60.20;;;;;;4931477;29;20536;-94
2022/04/13 01:22:03;;;;;;;9.80;5.17;;;18.70;61.20;;;;;;4923502;29;20204;-95
2022/04/13 01:24:47;;;;;;;19.37;7.43;;;18.70;60.20;;;;;;4936374;29;20207;-95
2022/04/13 01:27:18;;;;;;;8.37;4.93;;;18.70;60.70;;;;;;4937744;29;20324;-95
2022/04/13 01:29:54;;;;;;;9.13;5.07;;;18.70;60.00;;;;;;4939503;29;20327;-95
2022/04/13 01:32:27;;;;;;;10.97;5.77;;;18.60;60.60;;;;;;4942778;29;20235;-95
2022/04/13 01:34:54;;;;;;;11.43;5.70;;;18.60;60.40;;;;;;4933843;29;20216;-96
2022/04/13 01:37:25;;;;;;;13.07;5.83;;;18.60;60.40;;;;;;4933040;29;20729;-95
2022/04/13 01:40:00;;;;;;;9.57;5.57;;;18.60;60.80;;;;;;4939640;29;20212;-94
2022/04/13 01:42:32;;;;;;;10.20;4.93;;;18.60;60.80;;;;;;4934759;29;20296;-96
2022/04/13 01:45:01;;;;;;;13.77;6.50;;;18.60;60.70;;;;;;4942857;29;20688;-96
2022/04/13 01:47:30;;;;;;;22.17;6.33;;;18.60;61.00;;;;;;4930971;29;20223;-96
2022/04/13 01:50:00;;;;;;;16.20;6.97;;;18.50;60.70;;;;;;4941250;29;20256;-96
2022/04/13 01:52:39;;;;;;;12.87;6.00;;;18.50;61.30;;;;;;4948391;29;20552;-95
2022/04/13 01:55:20;;;;;;;8.97;5.47;;;18.50;61.90;;;;;;4930967;29;20231;-96
2022/04/13 01:58:06;;;;;;;11.33;5.30;;;18.50;61.70;;;;;;4928733;29;20212;-95
2022/04/13 02:00:40;;;;;;;8.77;4.60;;;18.50;62.10;;;;;;4940809;29;20208;-96
2022/04/13 02:03:12;;;;;;;8.63;4.93;;;18.40;61.40;;;;;;4947637;29;20204;-96
2022/04/13 02:05:46;;;;;;;5.53;4.23;;;18.30;61.70;;;;;;4939929;29;20204;-95
2022/04/13 02:09:05;;;;;;;13.83;6.10;;;18.30;61.40;;;;;;4951381;29;20211;-95
2022/04/13 02:11:38;;;;;;;12.40;5.50;;;18.30;62.00;;;;;;4940722;28;20779;-95
2022/04/13 02:14:09;;;;;;;10.07;4.80;;;18.30;61.40;;;;;;4946151;29;20195;-95
2022/04/13 02:20:42;;;;;;;13.37;5.93;;;18.20;62.30;;;;;;4938065;29;20291;-96
2022/04/13 02:23:34;;;;;;;8.10;4.53;;;18.20;62.20;;;;;;4918112;29;20208;-96
2022/04/13 02:28:59;;;;;;;10.00;5.17;;;18.10;62.00;;;;;;4933847;23;20239;-96
2022/04/13 02:32:22;;;;;;;12.23;5.40;;;18.10;61.50;;;;;;4915628;29;20330;-95
2022/04/13 02:38:02;;;;;;;7.43;5.20;;;18.00;61.50;;;;;;4900909;29;20215;-96
2022/04/13 02:47:14;;;;;;;11.60;6.00;;;17.90;62.70;;;;;;4872641;29;20214;-96
2022/04/13 02:50:00;;;;;;;10.93;5.83;;;17.80;62.70;;;;;;4896485;29;20225;-96
2022/04/13 02:58:46;;;;;;;12.93;7.33;;;17.60;63.20;;;;;;5099523;23;20250;-96
2022/04/13 03:01:16;;;;;;;10.97;7.23;;;17.60;63.20;;;;;;4898033;29;20279;-96
2022/04/13 03:03:48;;;;;;;18.67;9.70;;;17.60;62.60;;;;;;4901083;29;20660;-95
2022/04/13 03:06:19;;;;;;;13.93;7.43;;;17.50;62.60;;;;;;4901600;29;20225;-96
2022/04/13 03:08:52;;;;;;;19.70;9.90;;;17.50;63.00;;;;;;4900893;29;20211;-96
2022/04/13 03:11:27;;;;;;;16.60;7.70;;;17.50;62.70;;;;;;4888758;29;20236;-96
2022/04/13 03:13:56;;;;;;;10.87;6.57;;;17.40;62.80;;;;;;4901448;29;20196;-96
2022/04/13 03:16:25;;;;;;;16.17;7.73;;;17.40;62.50;;;;;;4900068;29;20216;-96
2022/04/13 03:19:26;;;;;;;12.37;7.60;;;17.40;62.90;;;;;;4901408;29;20217;-96
2022/04/13 03:21:55;;;;;;;13.20;7.47;;;17.30;62.90;;;;;;4897941;29;20219;-96
2022/04/13 03:24:22;;;;;;;14.93;7.70;;;17.30;62.80;;;;;;4907816;29;20297;-96
2022/04/13 03:30:18;;;;;;;15.13;7.57;;;17.20;62.80;;;;;;4985001;23;20310;-95
2022/04/13 03:32:50;;;;;;;15.53;8.03;;;17.20;62.40;;;;;;4924819;29;20320;-96
2022/04/13 03:35:18;;;;;;;12.80;6.93;;;17.10;62.70;;;;;;4940769;29;20238;-95
2022/04/13 03:37:51;;;;;;;15.30;7.93;;;17.10;62.70;;;;;;4939433;29;20224;-96
2022/04/13 03:40:19;;;;;;;14.03;7.70;;;17.00;62.90;;;;;;4941141;29;20298;-94
2022/04/13 03:42:52;;;;;;;16.37;8.23;;;17.00;62.60;;;;;;4937720;29;20219;-95
2022/04/13 03:45:22;;;;;;;14.10;7.30;;;16.90;62.40;;;;;;4937937;29;20291;-95
2022/04/13 03:47:53;;;;;;;16.17;7.97;;;16.90;63.00;;;;;;4944039;29;20235;-96
2022/04/13 03:53:48;;;;;;;15.13;8.10;;;16.70;64.40;;;;;;4945481;29;20230;-96
2022/04/13 03:56:23;;;;;;;12.87;6.53;;;16.70;64.10;;;;;;4971211;29;20200;-96
2022/04/13 03:58:54;;;;;;;15.07;7.53;;;16.60;64.00;;;;;;4969053;28;20200;-96
2022/04/13 04:01:22;;;;;;;14.70;8.23;;;16.50;63.60;;;;;;4943624;29;20217;-96
2022/04/13 04:03:56;;;;;;;14.90;8.37;;;16.50;63.80;;;;;;4936104;29;20208;-96
2022/04/13 04:06:30;;;;;;;15.70;8.23;;;16.50;64.20;;;;;;4937063;29;20219;-95
2022/04/13 04:09:04;;;;;;;15.17;7.80;;;16.40;64.10;;;;;;4936230;29;20229;-95
2022/04/13 04:11:40;;;;;;;8.30;6.10;;;16.40;64.10;;;;;;4938874;29;20644;-96
2022/04/13 04:16:59;;;;;;;16.93;8.07;;;16.30;64.10;;;;;;4947009;29;20189;-96
2022/04/13 04:19:32;;;;;;;15.10;6.73;;;16.30;64.10;;;;;;4951293;29;20211;-96
2022/04/13 04:22:00;;;;;;;12.63;7.43;;;16.30;64.60;;;;;;4936011;29;20220;-96
2022/04/13 04:34:01;;;;;;;12.20;7.20;;;16.10;65.50;;;;;;4841289;29;20212;-96
2022/04/13 04:36:29;;;;;;;8.43;6.33;;;16.00;64.30;;;;;;4914903;29;20209;-96
2022/04/13 04:38:59;;;;;;;12.17;7.10;;;16.00;64.30;;;;;;4926040;29;20581;-96
2022/04/13 04:42:05;;;;;;;12.43;6.37;;;15.90;64.40;;;;;;4926255;29;20674;-95
2022/04/13 04:44:38;;;;;;;12.50;7.43;;;15.90;65.70;;;;;;4923217;29;20215;-95
2022/04/13 04:47:10;;;;;;;17.47;8.07;;;15.90;65.50;;;;;;4920761;29;20214;-96
2022/04/13 04:49:43;;;;;;;13.80;7.10;;;15.80;65.40;;;;;;4919413;29;20670;-94
2022/04/13 04:52:11;;;;;;;12.23;7.33;;;15.80;65.80;;;;;;4920430;29;20344;-94
2022/04/13 04:54:39;;;;;;;14.63;8.20;;;15.70;65.70;;;;;;4918140;29;20210;-96
2022/04/13 04:57:07;;;;;;;16.50;8.50;;;15.70;65.80;;;;;;4920555;29;20217;-94
2022/04/13 04:59:36;;;;;;;12.37;7.43;;;15.60;66.70;;;;;;4920606;29;20293;-95
2022/04/13 05:02:08;;;;;;;13.23;7.47;;;15.70;66.70;;;;;;4919581;29;20215;-96
2022/04/13 05:11:09;;;;;;;12.43;7.60;;;15.60;68.60;;;;;;4838222;29;20244;-96
2022/04/13 05:13:45;;;;;;;17.63;8.93;;;15.60;67.50;;;;;;4922315;29;20233;-96
2022/04/13 05:29:51;;;;;;;16.57;8.83;;;15.70;70.10;;;;;;4944602;23;20234;-96
2022/04/13 05:48:00;;;;;;;;;;;;;;;;;;;;;
2022/04/13 05:53:41;;;;;;;17.17;9.23;;;15.80;70.50;;;;;;4890072;29;20220;-95
2022/04/13 06:02:09;;;;;;;11.23;8.20;;;15.80;69.90;;;;;;5340484;23;20217;-94
2022/04/13 06:04:50;;;;;;;18.30;9.63;;;15.80;70.20;;;;;;4920108;29;20235;-94
2022/04/13 06:07:22;;;;;;;16.17;9.30;;;15.80;70.90;;;;;;4909673;29;20220;-94
2022/04/13 06:09:55;;;;;;;17.57;10.03;;;15.80;71.00;;;;;;4918059;29;20204;-94
2022/04/13 06:12:26;;;;;;;17.30;9.80;;;15.80;70.80;;;;;;4917344;29;20230;-95
2022/04/13 06:15:25;;;;;;;17.17;9.17;;;15.90;71.70;;;;;;4920773;29;20291;-96
2022/04/13 06:18:13;;;;;;;17.93;10.03;;;15.90;72.60;;;;;;4919342;29;20237;-96
2022/04/13 06:20:50;;;;;;;17.10;9.27;;;15.80;72.50;;;;;;4907698;29;20201;-96
2022/04/13 06:23:24;;;;;;;12.03;8.27;;;15.90;72.60;;;;;;4915553;29;20214;-96
2022/04/13 06:32:32;;;;;;;;;;;;;;;;;;;;;
2022/04/13 06:35:05;;;;;;;17.10;8.93;;;16.00;72.50;;;;;;4919852;29;20221;-96
2022/04/13 06:37:44;;;;;;;20.17;10.33;;;16.00;72.70;;;;;;4901469;29;20221;-96
2022/04/13 06:40:19;;;;;;;15.87;8.90;;;16.10;73.50;;;;;;4900688;29;20210;-96
2022/04/13 06:43:01;;;;;;;15.73;9.93;;;16.10;73.10;;;;;;4917778;29;20221;-96
2022/04/13 06:45:50;;;;;;;12.10;8.77;;;16.20;73.00;;;;;;4920390;29;20230;-96
2022/04/13 06:48:27;;;;;;;17.97;10.77;;;16.20;72.90;;;;;;4922416;29;20244;-95
2022/04/13 06:50:55;;;;;;;14.80;9.43;;;16.20;72.90;;;;;;4919618;29;20253;-96
2022/04/13 06:53:40;;;;;;;11.57;8.77;;;16.30;72.30;;;;;;4916380;29;20211;-95
2022/04/13 06:59:36;;;;;;;13.13;9.83;;;16.40;73.10;;;;;;4920279;29;20216;-95
2022/04/13 07:02:12;;;;;;;16.23;10.20;;;16.40;72.50;;;;;;4920817;29;20635;-96
2022/04/13 07:07:44;;;;;;;21.93;10.83;;;16.50;72.40;;;;;;4874279;29;20209;-96
2022/04/13 07:17:06;;;;;;;16.57;10.30;;;16.60;73.20;;;;;;4944228;23;20310;-95
2022/04/13 07:19:47;;;;;;;18.60;11.20;;;16.60;73.10;;;;;;4899805;29;20542;-95
2022/04/13 07:22:20;;;;;;;16.30;10.63;;;16.60;73.40;;;;;;4900544;29;20229;-95
2022/04/13 07:24:52;;;;;;;18.33;11.83;;;16.70;73.00;;;;;;4912219;29;20386;-96
2022/04/13 07:27:46;;;;;;;20.80;12.13;;;16.70;74.10;;;;;;4907336;29;20213;-95
2022/04/13 07:30:14;;;;;;;21.67;12.20;;;16.80;73.70;;;;;;4916672;29;20232;-96
2022/04/13 07:32:45;;;;;;;18.00;11.10;;;16.80;73.00;;;;;;4918476;29;20238;-96
2022/04/13 07:35:14;;;;;;;23.13;13.60;;;16.80;72.80;;;;;;4922162;29;20211;-95
2022/04/13 07:38:35;;;;;;;21.57;13.03;;;16.80;73.00;;;;;;4909140;29;20205;-96
2022/04/13 07:41:20;;;;;;;;;;;;;;;;;;;;;
2022/04/13 07:43:56;;;;;;;18.50;11.67;;;16.90;73.60;;;;;;4917269;29;20218;-95
2022/04/13 07:46:27;;;;;;;18.83;11.70;;;16.90;73.50;;;;;;4908827;29;20214;-95
2022/04/13 07:48:55;;;;;;;15.40;11.23;;;17.00;73.60;;;;;;4915671;29;20216;-95
2022/04/13 07:51:24;;;;;;;23.07;12.30;;;17.00;73.40;;;;;;4914339;29;20322;-95
2022/04/13 07:53:55;;;;;;;23.27;13.07;;;17.00;73.80;;;;;;4915421;29;20283;-94
2022/04/13 07:56:54;;;;;;;23.70;13.17;;;17.10;73.90;;;;;;4913021;29;20211;-95
2022/04/13 07:59:23;;;;;;;19.87;11.90;;;17.10;74.60;;;;;;4913414;29;20216;-95
2022/04/13 08:01:56;;;;;;;17.40;11.53;;;17.20;74.00;;;;;;4915964;29;20212;-96
2022/04/13 08:04:29;;;;;;;16.67;10.60;;;17.20;74.00;;;;;;4908709;29;20208;-94
2022/04/13 08:06:57;;;;;;;25.73;12.90;;;17.20;73.80;;;;;;4911540;29;20660;-95
2022/04/13 08:10:08;;;;;;;19.20;11.50;;;17.20;73.40;;;;;;4908426;29;20215;-96
2022/04/13 08:12:46;;;;;;;20.23;11.53;;;17.20;74.00;;;;;;4920788;29;20231;-95
2022/04/13 08:15:30;;;;;;;23.83;11.73;;;17.30;73.30;;;;;;4922072;29;20214;-96
2022/04/13 08:18:02;;;;;;;20.93;10.50;;;17.30;73.90;;;;;;4923765;29;20212;-96
2022/04/13 08:20:34;;;;;;;14.80;9.87;;;17.30;73.30;;;;;;4924608;29;20197;-96
2022/04/13 08:23:10;;;;;;;16.10;10.13;;;17.40;73.30;;;;;;4924929;29;20239;-95
2022/04/13 08:25:39;;;;;;;16.33;10.80;;;17.40;73.40;;;;;;4923059;29;20223;-95
2022/04/13 08:31:09;;;;;;;18.40;10.67;;;17.40;73.40;;;;;;4920817;29;20280;-96
2022/04/13 08:34:10;;;;;;;21.40;10.83;;;17.40;73.70;;;;;;4919975;29;20759;-96
2022/04/13 08:36:53;;;;;;;15.27;9.67;;;17.40;73.90;;;;;;4914164;29;20215;-96
2022/04/13 08:39:49;;;;;;;14.43;8.70;;;17.40;73.70;;;;;;4918559;29;20211;-96
2022/04/13 08:48:43;;;;;;;19.73;10.53;;;17.50;73.90;;;;;;4994886;23;20247;-96
2022/04/13 08:54:15;;;;;;;16.90;10.23;;;17.50;74.20;;;;;;5344692;23;20274;-96
2022/04/13 08:57:04;;;;;;;16.80;9.97;;;17.50;73.50;;;;;;4901631;29;20293;-96
2022/04/13 09:00:00;;;;;;;13.23;7.57;;;17.50;73.60;;;;;;4900276;29;20209;-96
2022/04/13 09:02:58;;;;;;;14.47;8.90;;;17.50;73.20;;;;;;4902505;29;20212;-96
2022/04/13 09:11:54;;;;;;;11.67;8.00;;;17.60;73.80;;;;;;4931920;29;20637;-96
2022/04/13 09:21:17;;;;;;;14.93;8.00;;;17.70;73.40;;;;;;4918004;29;20275;-96
2022/04/13 09:27:24;;;;;;;16.23;9.93;;;17.80;73.40;;;;;;4810198;29;20227;-96
2022/04/13 09:35:54;;;;;;;22.00;12.13;;;17.80;73.60;;;;;;4822617;29;20212;-96
2022/04/13 09:44:58;;;;;;;21.20;10.70;;;17.90;74.10;;;;;;4835910;29;20225;-95
2022/04/13 09:47:35;;;;;;;15.77;10.63;;;17.90;73.80;;;;;;4906060;29;20221;-95
2022/04/13 09:53:29;;;;;;;17.47;11.13;;;18.00;73.80;;;;;;4900710;29;20268;-96
2022/04/13 09:56:00;;;;;;;27.63;12.80;;;18.10;73.00;;;;;;4899434;29;20233;-95
2022/04/13 09:58:35;;;;;;;15.70;9.97;;;18.20;73.00;;;;;;4901835;29;20277;-95
2022/04/13 10:04:37;;;;;;;17.30;9.90;;;18.20;73.20;;;;;;4898458;29;20265;-96
2022/04/13 10:07:17;;;;;;;16.97;9.60;;;18.30;72.50;;;;;;4904596;29;20210;-96
2022/04/13 10:10:42;;;;;;;17.63;9.27;;;18.40;72.50;;;;;;4907632;29;20209;-96
2022/04/13 10:13:34;;;;;;;24.30;10.57;;;18.40;71.80;;;;;;4912126;29;20276;-95
2022/04/13 10:19:38;;;;;;;17.47;9.30;;;18.50;72.80;;;;;;4905574;29;20216;-96
2022/04/13 10:22:10;;;;;;;18.50;8.27;;;18.50;71.70;;;;;;4916102;29;20201;-95
2022/04/13 10:24:43;;;;;;;18.03;9.63;;;18.60;71.60;;;;;;4898948;29;20225;-95
2022/04/13 10:36:15;;;;;;;13.40;7.67;;;18.80;71.70;;;;;;4900117;29;20202;-96
2022/04/13 10:38:47;;;;;;;17.67;8.67;;;18.90;72.00;;;;;;4906081;29;20787;-96
2022/04/13 10:44:12;;;;;;;12.07;7.20;;;19.00;70.90;;;;;;4907735;29;20202;-94
2022/04/13 10:50:16;;;;;;;13.03;7.30;;;19.20;70.50;;;;;;4864145;29;20223;-95
2022/04/13 10:52:54;;;;;;;10.63;5.90;;;19.30;70.70;;;;;;4905774;29;21546;-95
2022/04/13 10:55:43;;;;;;;13.67;6.20;;;19.40;68.90;;;;;;4903268;29;20217;-94
2022/04/13 10:58:18;;;;;;;7.40;3.83;;;19.60;69.20;;;;;;4911127;29;20212;-96
2022/04/13 11:01:16;;;;;;;6.37;3.57;;;19.70;68.50;;;;;;4918033;29;20225;-95
2022/04/13 11:03:48;;;;;;;10.10;4.70;;;19.80;67.40;;;;;;4902336;29;20238;-95
2022/04/13 11:06:17;;;;;;;8.90;4.97;;;19.90;67.50;;;;;;4915420;29;20261;-95
2022/04/13 11:11:37;;;;;;;10.43;5.27;;;20.10;67.00;;;;;;4941114;29;20209;-96
2022/04/13 11:14:21;;;;;;;10.63;5.40;;;20.20;66.00;;;;;;4937228;29;20237;-95
2022/04/13 11:20:22;;;;;;;10.03;5.30;;;20.40;65.50;;;;;;4937372;29;20237;-96
2022/04/13 11:23:10;;;;;;;13.23;6.37;;;20.50;65.20;;;;;;4933944;29;20204;-96
2022/04/13 11:26:02;;;;;;;13.40;6.07;;;20.60;65.00;;;;;;4932516;29;20296;-96
2022/04/13 11:28:35;;;;;;;17.23;6.47;;;20.60;64.10;;;;;;4938572;29;20208;-95
2022/04/13 11:34:40;;;;;;;13.93;6.23;;;20.80;63.80;;;;;;4936434;29;20216;-96
2022/04/13 11:40:06;;;;;;;10.20;4.70;;;20.90;63.90;;;;;;4937728;29;20215;-95
2022/04/13 11:43:04;;;;;;;9.47;4.83;;;21.00;63.20;;;;;;4935287;29;20251;-95
2022/04/13 11:45:33;;;;;;;7.67;4.60;;;21.10;62.30;;;;;;4938017;28;20222;-95
2022/04/13 11:48:07;;;;;;;11.90;4.73;;;21.20;63.20;;;;;;4942131;29;20204;-95
2022/04/13 11:53:31;;;;;;;7.33;4.03;;;21.30;61.50;;;;;;4928721;29;20240;-94
2022/04/13 11:56:04;;;;;;;12.90;4.80;;;21.30;61.60;;;;;;4933135;29;20204;-96
2022/04/13 11:59:07;;;;;;;;;;;;;;;;;;;;;
2022/04/13 12:05:02;;;;;;;11.80;4.93;;;21.50;60.80;;;;;;5122820;23;20248;-95
2022/04/13 12:08:27;;;;;;;;;;;;;;;;;;;;;
2022/04/13 12:10:58;;;;;;;12.77;4.57;;;21.70;60.20;;;;;;4956295;23;20240;-95
2022/04/13 12:13:32;;;;;;;9.97;4.10;;;21.80;60.80;;;;;;4915983;29;20279;-95
2022/04/13 12:16:09;;;;;;;7.77;3.53;;;21.80;60.40;;;;;;4933006;29;20232;-95
2022/04/13 12:22:17;;;;;;;14.60;6.20;;;22.00;60.50;;;;;;4904530;29;20222;-95
2022/04/13 12:25:44;;;;;;;5.90;3.63;;;22.10;60.80;;;;;;4944123;29;20204;-95
2022/04/13 12:29:09;;;;;;;12.47;6.03;;;22.20;59.20;;;;;;4893208;29;20207;-95
2022/04/13 12:31:47;;;;;;;5.97;3.83;;;22.20;59.20;;;;;;4934227;29;20232;-95
2022/04/13 12:35:13;;;;;;;7.37;3.97;;;22.30;59.00;;;;;;4941417;29;20256;-95
2022/04/13 12:37:58;;;;;;;9.07;3.90;;;22.40;58.40;;;;;;4931974;29;20672;-95
2022/04/13 12:40:44;;;;;;;8.17;3.37;;;22.40;58.80;;;;;;4939615;29;20215;-95
2022/04/13 12:46:34;;;;;;;9.97;3.77;;;22.50;57.90;;;;;;5284824;23;20251;-95
2022/04/13 12:49:05;;;;;;;8.30;3.80;;;22.50;58.20;;;;;;4915831;23;20232;-96
2022/04/13 12:51:41;;;;;;;7.60;3.20;;;22.50;57.70;;;;;;4919838;29;20288;-95
2022/04/13 12:54:14;;;;;;;8.27;3.80;;;22.40;57.20;;;;;;4922987;29;20276;-95
2022/04/13 12:56:50;;;;;;;6.93;3.40;;;22.40;57.30;;;;;;4925351;29;20732;-96
2022/04/13 13:15:14;;;;;;;11.00;4.83;;;22.60;57.20;;;;;;4945045;23;20283;-95
2022/04/13 13:20:59;;;;;;;4.97;2.90;;;23.00;58.00;;;;;;4948541;28;20220;-95
2022/04/13 13:26:25;;;;;;;6.80;3.40;;;23.40;55.90;;;;;;4963085;23;20252;-96
2022/04/13 13:29:00;;;;;;;6.50;3.10;;;23.60;56.20;;;;;;4989952;23;20255;-96
2022/04/13 13:31:28;;;;;;;9.13;3.87;;;23.80;56.50;;;;;;4935082;29;20645;-95
2022/04/13 13:34:04;;;;;;;5.53;3.13;;;23.90;56.20;;;;;;4943114;29;20654;-94
2022/04/13 13:37:02;;;;;;;6.60;3.17;;;24.00;55.60;;;;;;4946479;29;20235;-93
2022/04/13 13:42:13;;;;;;;6.87;2.87;;;24.20;54.80;;;;;;4948591;29;20224;-95
2022/04/13 13:44:43;;;;;;;6.23;3.03;;;24.20;52.90;;;;;;4953279;23;20288;-95
2022/04/13 13:55:53;;;;;;;5.70;3.30;;;24.30;53.90;;;;;;4884887;29;20214;-96
2022/04/13 13:58:51;;;;;;;8.83;4.13;;;24.30;52.70;;;;;;4877000;29;20203;-96
2022/04/13 14:05:14;;;;;;;6.00;3.20;;;24.20;52.60;;;;;;4870642;29;20213;-96
2022/04/13 14:11:47;;;;;;;7.93;3.50;;;24.10;53.00;;;;;;4927594;29;20259;-96
2022/04/13 14:21:31;;;;;;;5.60;2.67;;;24.00;51.70;;;;;;4946395;23;20511;-95
2022/04/13 14:24:09;;;;;;;6.10;2.87;;;24.00;52.00;;;;;;4905881;29;20204;-96
2022/04/13 14:33:35;;;;;;;5.17;2.70;;;24.00;53.10;;;;;;4941719;23;20261;-95
2022/04/13 14:36:17;;;;;;;6.53;3.03;;;24.10;53.00;;;;;;4933321;29;20236;-96
2022/04/13 14:39:28;;;;;;;5.30;2.50;;;24.10;51.40;;;;;;4927073;29;20213;-96
2022/04/13 14:42:04;;;;;;;5.90;2.97;;;24.10;50.50;;;;;;4912838;29;20209;-96
2022/04/13 14:47:54;;;;;;;9.07;3.30;;;24.20;51.40;;;;;;4893879;29;20231;-95
2022/04/13 14:53:54;;;;;;;7.03;2.77;;;24.20;50.80;;;;;;4930245;29;20235;-96
2022/04/13 14:59:54;;;;;;;5.60;2.43;;;24.20;50.10;;;;;;4932230;29;20268;-94
2022/04/13 15:05:07;;;;;;;17.00;7.17;;;24.10;51.10;;;;;;4913287;23;20222;-95
2022/04/13 15:08:06;;;;;;;11.37;4.13;;;24.10;50.40;;;;;;4921044;29;20622;-95
2022/04/13 15:10:54;;;;;;;7.10;3.50;;;24.00;50.20;;;;;;4918477;29;20243;-95
2022/04/13 15:13:27;;;;;;;11.23;4.57;;;24.00;49.90;;;;;;4926598;29;20232;-96
2022/04/13 15:16:11;;;;;;;4.67;2.23;;;23.90;50.40;;;;;;4925626;29;20201;-95
2022/04/13 15:18:41;;;;;;;5.53;2.90;;;23.80;50.40;;;;;;4922498;23;20244;-96
2022/04/13 16:19:08;;;;;;;9.60;6.07;;;22.60;53.30;;;;;;4940730;29;20198;-96
2022/04/13 16:21:52;;;;;;;14.03;7.90;;;22.60;53.30;;;;;;4942300;29;20260;-96
2022/04/13 16:24:25;;;;;;;9.53;6.77;;;22.60;53.70;;;;;;4932290;29;20206;-96
2022/04/13 16:27:08;;;;;;;12.83;7.80;;;22.60;53.80;;;;;;4933149;29;20267;-96
2022/04/13 16:29:41;;;;;;;12.03;6.97;;;22.50;53.90;;;;;;4934033;29;20215;-96
2022/04/13 16:32:13;;;;;;;12.10;7.00;;;22.50;53.90;;;;;;4935125;29;20929;-96
2022/04/13 16:34:42;;;;;;;27.03;13.43;;;22.50;54.00;;;;;;5000497;23;20240;-95
2022/04/13 16:53:50;;;;;;;12.53;7.47;;;22.40;54.10;;;;;;4936636;29;20227;-96
2022/04/13 16:56:43;;;;;;;11.63;8.13;;;22.30;54.40;;;;;;4943041;29;20256;-96
2022/04/13 17:02:13;;;;;;;12.00;8.07;;;22.30;54.70;;;;;;4956221;23;20250;-95
2022/04/13 17:05:36;;;;;;;11.83;8.07;;;22.20;54.70;;;;;;4925919;29;20308;-96
2022/04/13 17:08:09;;;;;;;11.60;6.73;;;22.20;55.20;;;;;;4921663;29;20228;-95
2022/04/13 17:13:12;;;;;;;11.57;7.03;;;22.00;55.10;;;;;;5098235;23;20243;-96
2022/04/13 17:15:53;;;;;;;10.30;6.30;;;22.00;55.20;;;;;;4934108;29;20218;-95
2022/04/13 17:22:05;;;;;;;14.00;7.37;;;21.80;55.30;;;;;;5154058;23;20236;-95
2022/04/13 17:32:36;;;;;;;12.13;6.77;;;21.60;55.20;;;;;;5007389;23;20334;-95
2022/04/13 17:37:55;;;;;;;9.20;5.90;;;21.50;55.20;;;;;;4919062;29;20209;-95
2022/04/13 17:40:29;;;;;;;9.60;5.77;;;21.40;55.20;;;;;;4926860;29;20218;-95
2022/04/13 17:51:22;;;;;;;9.53;5.33;;;21.10;55.40;;;;;;4913424;29;20232;-94
2022/04/13 17:56:45;;;;;;;13.00;6.63;;;21.10;55.70;;;;;;4963682;23;20272;-95
2022/04/13 18:02:44;;;;;;;15.30;6.73;;;21.00;55.80;;;;;;4927802;29;20218;-96
2022/04/13 18:05:52;;;;;;;12.27;6.20;;;21.00;55.70;;;;;;4947264;29;20702;-96
2022/04/13 18:08:26;;;;;;;7.17;5.00;;;20.90;55.80;;;;;;4930680;29;20215;-96
2022/04/13 18:10:56;;;;;;;12.87;5.83;;;20.90;55.70;;;;;;4940792;29;20208;-96
2022/04/13 18:13:38;;;;;;;9.87;5.00;;;20.80;55.70;;;;;;4941981;29;20204;-95
2022/04/13 18:19:40;;;;;;;9.87;5.70;;;20.80;56.20;;;;;;5393894;23;20263;-96
2022/04/13 18:22:16;;;;;;;11.07;5.13;;;20.70;56.20;;;;;;4918828;29;20213;-95
2022/04/13 18:25:21;;;;;;;12.73;5.93;;;20.60;56.10;;;;;;4907370;29;20264;-96
2022/04/13 18:28:19;;;;;;;12.47;5.40;;;20.60;56.50;;;;;;4919804;29;20225;-95
2022/04/13 18:30:56;;;;;;;10.37;5.17;;;20.50;56.50;;;;;;4846071;29;20278;-95
2022/04/13 18:36:53;;;;;;;18.20;7.53;;;20.50;56.80;;;;;;5021561;23;20247;-95
2022/04/13 18:46:50;;;;;;;10.93;4.97;;;20.30;56.80;;;;;;4888701;29;20205;-96
2022/04/13 18:49:46;;;;;;;9.40;5.23;;;20.30;57.10;;;;;;4890597;29;20202;-95
2022/04/13 18:52:33;;;;;;;14.27;5.47;;;20.30;57.30;;;;;;4896176;29;20229;-95
2022/04/13 18:55:29;;;;;;;42.67;17.23;;;20.20;57.20;;;;;;5019375;23;20307;-95
2022/04/13 19:01:33;;;;;;;6.10;4.33;;;20.10;57.20;;;;;;4984484;23;20308;-94
2022/04/13 19:07:48;;;;;;;8.97;4.83;;;20.10;57.50;;;;;;4920323;29;20636;-95
2022/04/13 19:17:40;;;;;;;7.87;4.57;;;20.00;57.30;;;;;;4861759;29;20237;-95
2022/04/13 19:20:13;;;;;;;9.07;4.57;;;20.00;57.40;;;;;;4870246;29;20214;-94
2022/04/13 19:22:44;;;;;;;8.60;4.43;;;19.90;57.20;;;;;;4867517;29;21072;-95
2022/04/13 19:25:19;;;;;;;12.80;6.83;;;19.90;57.40;;;;;;4866721;29;20203;-95
2022/04/13 19:31:11;;;;;;;40.37;15.77;;;19.80;57.60;;;;;;4965855;23;20236;-95
2022/04/13 19:33:42;;;;;;;9.97;6.00;;;19.80;57.50;;;;;;4940933;29;20212;-95
2022/04/13 19:36:12;;;;;;;12.20;5.47;;;19.80;57.70;;;;;;4942469;29;20675;-95
2022/04/13 19:38:59;;;;;;;12.00;5.43;;;19.70;57.80;;;;;;4940286;29;20243;-95
2022/04/13 19:41:45;;;;;;;11.43;6.40;;;19.70;58.10;;;;;;4932692;29;20252;-95
2022/04/13 19:44:26;;;;;;;10.20;5.43;;;19.70;58.30;;;;;;4935166;29;20551;-96
2022/04/13 19:59:39;;;;;;;12.03;6.43;;;19.40;58.40;;;;;;4924277;29;20237;-95
2022/04/13 20:02:16;;;;;;;11.70;6.13;;;19.40;58.20;;;;;;4930422;29;20204;-95
2022/04/13 20:04:45;;;;;;;10.57;6.40;;;19.40;58.60;;;;;;4928362;29;20224;-95
2022/04/13 20:07:19;;;;;;;16.90;7.07;;;19.30;58.40;;;;;;4929057;29;20220;-96
2022/04/13 20:10:16;;;;;;;9.13;6.20;;;19.30;58.50;;;;;;4935050;29;20212;-95
2022/04/13 20:19:05;;;;;;;10.53;5.67;;;19.10;58.90;;;;;;4893271;29;20223;-95
2022/04/13 20:21:37;;;;;;;12.43;5.73;;;19.10;58.60;;;;;;4935757;29;20216;-95
2022/04/13 20:33:17;;;;;;;9.27;5.30;;;19.00;58.60;;;;;;4898082;29;20695;-95
2022/04/13 20:35:54;;;;;;;11.13;6.10;;;19.00;59.00;;;;;;4910143;29;20233;-96
2022/04/13 20:38:44;;;;;;;9.67;5.23;;;19.00;59.30;;;;;;4908806;29;20253;-94
2022/04/13 20:41:51;;;;;;;12.40;6.13;;;18.90;59.40;;;;;;4902238;29;20201;-95
2022/04/13 20:44:48;;;;;;;12.70;5.37;;;18.90;59.50;;;;;;4913351;29;20228;-95
2022/04/13 20:50:33;;;;;;;11.47;7.10;;;18.80;59.20;;;;;;4914818;29;20205;-95
2022/04/13 20:53:05;;;;;;;12.37;6.93;;;18.80;59.90;;;;;;4904438;29;20568;-95
2022/04/13 21:02:36;;;;;;;10.50;6.60;;;18.80;59.70;;;;;;4823819;29;20305;-95
2022/04/13 21:05:28;;;;;;;12.97;6.90;;;18.70;59.60;;;;;;4956966;23;20227;-96
2022/04/13 21:08:40;;;;;;;15.10;7.13;;;18.70;59.90;;;;;;4963197;29;20229;-95
2022/04/13 21:14:39;;;;;;;12.73;7.40;;;18.60;59.70;;;;;;4961262;29;20316;-95
2022/04/13 21:17:10;;;;;;;13.53;6.93;;;18.60;59.70;;;;;;4963403;28;20231;-95
2022/04/13 21:19:49;;;;;;;10.77;6.97;;;18.50;59.50;;;;;;4936135;29;20208;-96